00OK weather

Gull Bay Landing Airport
Sandsprings, Oklahoma, United States

Public forecast

Using degrees Fahrenheit for public forecast. Weather courtesy of forecast.io.

METAR (pilot weather report)

Closest report is William R. Pogue Municipal Airport, 3.5 nm (6.5 km) ESE. Retrieved 2019/04/19 23:35 UTC (44 minutes ago):

KOWP 192335Z AUTO 34008G16KT 10SM CLR 20/00 A3000 RMK AO2 T01981001 PWINO

TAF (pilot weather forecast)

Forecast is more than 12 hours old.

Closest forecast is Richard Lloyd Jones Jr Airport, 14.8 nm (27.4 km) SE. Retrieved 2019/04/19 00:22 UTC (24 hours ago):

TAF KRVS 192320Z 2000/2024 33012KT P6SM SKC FM200100 VRB02KT P6SM SKC FM201600 19008KT P6SM SKC